Have a Safe July 4th! 

Flight Track Log - Related Links

Times and Time Zones

All times are in EDT time to prevent confusion due to time zone crossing. See the N400PU flight status page for this flight to view local times or setup timezone preferences in your user account.

Time Position Orientation Groundspeed Altitude Reporting Facility
EDT Latitude Longitude Course Direction KTS MPH feet Rate Location/Type
Tue 06:57:50 AM 40.4003 -87.0978 255° West 229 264 6,100  Level Chicago Center
Tue 06:58:51 AM 40.3739 -87.2081 253° West 262 302 9,300 2,754 Climbing Chicago Center
Tue 06:59:00 AM 40.2552 -87.6959 252° West  Level FlightAware Approximate
Tue 06:59:52 AM 40.3508 -87.3064 253° West 279 321 11,700  Level Chicago Center
Tue 07:00:00 AM 40.2374 -87.8248 261° West  Level FlightAware Approximate
Tue 07:00:53 AM 40.3292 -87.4061 254° West 282 325 14,300  Level Chicago Center
Tue 07:01:00 AM 40.2221 -87.9545 261° West  Level FlightAware Approximate
Tue 07:01:53 AM 40.3081 -87.4964 253° West 282 325 16,800  Level Chicago Center
Tue 07:02:00 AM 40.2028 -88.0832 258° West  Level FlightAware Approximate
Tue 07:02:54 AM 40.2867 -87.5939 254° West 281 323 18,400  Level Chicago Center
Tue 07:03:00 AM 40.1819 -88.2072 255° West  Level FlightAware Approximate
Tue 07:03:55 AM 40.2700 -87.7028 259° West 298 343 19,900  Level Chicago Center
Tue 07:04:56 AM 40.2506 -87.8169 257° West 317 365 21,300 1,438 Climbing Chicago Center
Tue 07:05:56 AM 40.2303 -87.9331 257° West 324 373 22,800 1,438 Climbing Chicago Center
Tue 07:06:57 AM 40.2100 -88.0517 257° West 329 379 24,200 1,426 Climbing Chicago Center
Tue 07:07:58 AM 40.1886 -88.1789 258° West 336 387 25,700 1,475 Climbing Chicago Center
Tue 07:08:59 AM 40.1692 -88.2992 258° West 336 387 27,200 1,230 Climbing Chicago Center
Tue 07:10:00 AM 40.1469 -88.4175 256° West 336 387 28,200 885 Climbing Chicago Center
Tue 07:11:01 AM 40.1267 -88.5383 258° West 337 388 29,000 590 Climbing Chicago Center
Tue 07:12:02 AM 40.1056 -88.6650 258° West 351 404 29,400 443 Climbing Chicago Center
Tue 07:13:03 AM 40.0811 -88.7958 256° West 366 421 29,900 443 Climbing Chicago Center
Tue 07:14:04 AM 40.0569 -88.9303 257° West 378 435 30,300 443 Climbing Chicago Center
Tue 07:15:05 AM 40.0322 -89.0667 257° West 383 441 30,800 492 Climbing Chicago Center
Tue 07:16:06 AM 40.0017 -89.2325 257° West 388 447 31,300 492 Climbing Chicago Center
Tue 07:17:07 AM 39.9758 -89.3744 257° West 395 455 31,800 590 Climbing Chicago Center
Tue 07:18:08 AM 39.9489 -89.5172 256° West 400 460 32,500 732 Climbing Chicago Center
Tue 07:19:10 AM 39.9219 -89.6647 257° West 412 474 33,300 878 Climbing Chicago Center
Tue 07:20:11 AM 39.8953 -89.8081 256° West 409 471 34,300 934 Climbing Chicago Center
Tue 07:21:12 AM 39.8692 -89.9483 256° West 401 461 35,200 885 Climbing Chicago Center
Tue 07:22:13 AM 39.8419 -90.0881 256° West 398 458 36,100 934 Climbing Chicago Center
Tue 07:23:14 AM 39.8164 -90.2272 257° West 395 455 37,100 927 Climbing Chicago Center
Tue 07:24:16 AM 39.7908 -90.3617 256° West 386 444 38,000 439 Climbing Chicago Center
Tue 07:25:17 AM 39.7625 -90.4975 255° West 388 447 38,000  Level Chicago Center
Tue 07:26:18 AM 39.7319 -90.6586 256° West 410 472 38,000  Level Chicago Center
Tue 07:27:19 AM 39.7047 -90.8017 256° West 410 472 38,000  Level Chicago Center
Tue 07:28:41 AM 39.6717 -90.9711 256° West 406 467 38,000  Level Kansas City Center
Tue 07:29:42 AM 39.6372 -91.1414 255° West 406 467 38,000  Level Kansas City Center
Tue 07:30:41 AM 39.6089 -91.2833 256° West 406 467 38,000  Level Kansas City Center
Tue 07:31:43 AM 39.5797 -91.4267 255° West 407 468 38,000  Level Kansas City Center
Tue 07:32:45 AM 39.5503 -91.5692 255° West 407 468 38,000  Level Kansas City Center
Tue 07:33:45 AM 39.5214 -91.7125 255° West 409 471 38,000  Level Kansas City Center
Tue 07:34:46 AM 39.4914 -91.8569 255° West 411 473 38,000  Level Kansas City Center
Tue 07:35:47 AM 39.4617 -92.0000 255° West 414 476 38,000  Level Kansas City Center
Tue 07:36:49 AM 39.4325 -92.1419 255° West 413 475 38,000  Level Kansas City Center
Tue 07:37:48 AM 39.4011 -92.2867 254° West 414 476 38,000  Level Kansas City Center
Tue 07:38:50 AM 39.3708 -92.4303 255° West 414 476 38,000  Level Kansas City Center
Tue 07:39:52 AM 39.3406 -92.5717 255° West 414 476 38,000  Level Kansas City Center
Tue 07:40:53 AM 39.3025 -92.7417 254° West 414 476 38,000  Level Kansas City Center
Tue 07:41:53 AM 39.2731 -92.8828 255° West 413 475 38,000  Level Kansas City Center
Tue 07:42:55 AM 39.2414 -93.0253 254° West 413 475 38,000  Level Kansas City Center
Tue 07:43:56 AM 39.2106 -93.1669 254° West 413 475 38,000  Level Kansas City Center
Tue 07:44:56 AM 39.1783 -93.3075 254° West 413 475 38,000  Level Kansas City Center
Tue 07:45:57 AM 39.1503 -93.4386 255° West 413 475 38,000  Level Kansas City Center
Tue 07:46:57 AM 39.1136 -93.6103 255° West 413 475 38,000  Level Kansas City Center
Tue 07:47:58 AM 39.0797 -93.7533 253° West 414 476 38,000  Level Kansas City Center
Tue 07:48:59 AM 39.0481 -93.8972 254° West 415 478 38,000  Level Kansas City Center
Tue 07:50:01 AM 39.0153 -94.0397 254° West 417 480 38,000  Level Kansas City Center
Tue 07:51:03 AM 38.9817 -94.1839 253° West 420 483 38,000  Level Kansas City Center
Tue 07:52:04 AM 38.9492 -94.3231 253° West 411 473 38,000  Level Kansas City Center
Tue 07:53:05 AM 38.9172 -94.4619 254° West 410 472 38,000  Level Kansas City Center
Tue 07:54:07 AM 38.8850 -94.6017 254° West 410 472 38,000  Level Kansas City Center
Tue 07:55:08 AM 38.8514 -94.7406 253° West 409 471 38,000  Level Kansas City Center
Tue 07:56:09 AM 38.8192 -94.8792 253° West 408 470 38,000  Level Kansas City Center
Tue 07:57:10 AM 38.7856 -95.0167 253° West 406 467 38,000  Level Kansas City Center
Tue 07:58:11 AM 38.7533 -95.1553 253° West 405 466 38,000  Level Kansas City Center
Tue 07:59:11 AM 38.7203 -95.2922 253° West 404 465 38,000  Level Kansas City Center
Tue 08:00:13 AM 38.6872 -95.4269 253° West 401 461 38,000 -689 Level Kansas City Center
Tue 08:01:13 AM 38.6558 -95.5581 253° West 388 447 36,600 -1,600 Descending Kansas City Center
Tue 08:02:13 AM 38.6175 -95.7094 252° West 377 434 34,800 -1,561 Descending Kansas City Center
Tue 08:03:16 AM 38.5853 -95.8458 253° West 400 460 33,400 -1,403 Descending Kansas City Center
Tue 08:04:17 AM 38.5508 -95.9856 253° West 408 470 31,900 -1,475 Descending Kansas City Center
Tue 08:05:18 AM 38.5153 -96.1300 253° West 420 483 30,400 -1,463 Descending Kansas City Center
Tue 08:06:20 AM 38.4772 -96.2731 251° West 427 491 28,900 -1,623 Descending Kansas City Center
Tue 08:07:20 AM 38.4394 -96.4206 252° West 433 498 27,100 -2,262 Descending Kansas City Center
Tue 08:08:22 AM 38.3975 -96.5850 252° West 445 512 24,300 -2,619 Descending Kansas City Center
Tue 08:09:26 AM 38.3564 -96.7475 252° West 436 502 21,600 -2,447 Descending Kansas City Center
Tue 08:09:38 AM 38.3525 -96.7694 257° West 435 501 21,200 -2,276 Descending Kansas City Center
Tue 08:10:24 AM 38.3236 -96.8736 251° West 427 491 19,400 -2,754 Descending Kansas City Center
Tue 08:10:39 AM 38.3131 -96.9200 254° West 421 484 18,400 -3,000 Descending Kansas City Center
Tue 08:11:24 AM 38.2883 -97.0097 251° West 410 472 16,400 -2,900 Descending Kansas City Center
Tue 08:11:39 AM 38.2783 -97.0539 254° West 392 451 15,500 -2,951 Descending Kansas City Center
Tue 08:12:25 AM 38.2553 -97.1381 251° West 389 448 13,400 -2,903 Descending Kansas City Center
Tue 08:12:41 AM 38.2444 -97.1792 251° West 379 436 12,500 -2,951 Descending Kansas City Center
Tue 08:13:26 AM 38.2225 -97.2633 252° West 379 436 10,400 -3,000 Descending Kansas City Center
Tue 08:13:41 AM 38.2122 -97.3014 251° West 362 417 9,500 -2,361 Descending Kansas City Center
Tue 08:14:27 AM 38.1933 -97.3736 252° West 336 387 8,000 -2,066 Descending Kansas City Center
Tue 08:14:42 AM 38.1847 -97.4069 252° West 299 344 7,400 -2,262 Descending Kansas City Center
Tue 08:15:28 AM 38.1644 -97.4853 252° West 287 330 5,700 -1,967 Descending Kansas City Center
Tue 08:15:43 AM 38.1600 -97.4986 247° West 274 315 5,400 -1,378 Descending Kansas City Center
Tue 08:16:42 AM 38.1464 -97.5964 260° West 261 300 4,000 -785 Descending Kansas City Center
Tue 08:17:30 AM 38.1531 -97.6678 277° West 265 305 4,000  Level Kansas City Center
Tue 08:17:42 AM 38.1553 -97.6908 277° West 266 306 4,000  Level Kansas City Center
Tue 08:18:33 AM 38.1600 -97.7544 275° West 248 285 4,000 -53 Level Kansas City Center
Tue 08:19:35 AM 38.1856 -97.8197 296° West 215 247 3,900  Descending Kansas City Center
Tue 08:20:36 AM 38.2206 -97.8797 307° West 212 244 4,000 -133 Climbing Kansas City Center
Tue 08:22:36 AM 38.1625 -97.9536 167° South 195 224 3,500 -231 Descending Kansas City Center
Tue 08:22:46 AM 38.1506 -97.9522 175° South 194 223 3,500 -750 Level Kansas City Center
Tue 08:23:40 AM 38.1197 -97.9217 142° Southeast 183 211 2,700 -789 Descending Kansas City Center
Tue 08:24:40 AM 38.0931 -97.8925 139° Southeast 147 169 2,000 -639 Descending Kansas City Center
Tue 08:25:42 AM 38.0686 -97.8644 138° Southeast 130 150 1,400 -242 Descending Kansas City Center
Tue 08:26:44 AM 38.0628 -97.8617 159° South 48 55 1,500 49 Climbing Kansas City Center
Tue 08:27:44 AM 38.0608 -97.8642 225° Southwest 35 40 1,500  Level Kansas City Center

Login

Don't have an account? Register now (free) for customized features, flight alerts, and more!